createdAt,value
2023-01-27T00:01:06.111Z,101647.13
2023-01-27T00:03:34.227Z,101650.41
2023-01-27T00:06:02.006Z,101648.34
2023-01-27T00:08:30.066Z,101641.16
2023-01-27T00:11:16.427Z,101642.59
2023-01-27T00:13:44.194Z,101641.38
2023-01-27T00:16:12.696Z,101635.78
2023-01-27T00:18:40.349Z,101633.13
2023-01-27T00:21:25.924Z,101627.63
2023-01-27T00:24:11.417Z,101627.25
2023-01-27T00:26:40.744Z,101629.78
2023-01-27T00:29:08.459Z,101619.06
2023-01-27T00:31:53.800Z,101625.53
2023-01-27T00:34:21.419Z,101620.09
2023-01-27T00:36:49.141Z,101621.81
2023-01-27T00:39:16.982Z,101627.03
2023-01-27T00:41:45.981Z,101628.59
2023-01-27T00:44:13.773Z,101631.41
2023-01-27T00:46:42.068Z,101631.28
2023-01-27T00:49:11.276Z,101633.69
2023-01-27T00:51:38.944Z,101638.81
2023-01-27T00:54:07.105Z,101648.50
2023-01-27T00:56:35.433Z,101642.19
2023-01-27T00:59:05.250Z,101650.22
2023-01-27T01:01:33.905Z,101652.91
2023-01-27T01:04:02.179Z,101652.91
2023-01-27T01:06:29.937Z,101659.13
2023-01-27T01:08:58.653Z,101658.50
2023-01-27T01:11:27.484Z,101662.16
2023-01-27T01:13:56.491Z,101671.28
2023-01-27T01:16:26.611Z,101670.06
2023-01-27T01:18:55.305Z,101668.59
2023-01-27T01:21:30.356Z,101667.50
2023-01-27T01:23:58.236Z,101673.34
2023-01-27T01:26:27.363Z,101673.81
2023-01-27T01:28:55.033Z,101670.16
2023-01-27T01:31:22.703Z,101678.06
2023-01-27T01:33:52.491Z,101683.16
2023-01-27T01:36:22.026Z,101671.47
2023-01-27T01:38:50.074Z,101677.66
2023-01-27T01:41:21.264Z,101677.53
2023-01-27T01:43:49.366Z,101679.25
2023-01-27T01:46:17.734Z,101676.44
2023-01-27T01:48:48.379Z,101675.59
2023-01-27T01:51:21.206Z,101678.41
2023-01-27T01:53:56.519Z,101676.56
2023-01-27T01:56:27.125Z,101679.00
2023-01-27T01:58:57.399Z,101683.28
2023-01-27T02:01:25.251Z,101679.13
2023-01-27T02:04:00.626Z,101681.94
2023-01-27T06:26:17.105Z,101820.59
2023-01-27T06:28:46.488Z,101817.78
2023-01-27T06:31:16.769Z,101819.50
2023-01-27T06:33:45.254Z,101816.34
2023-01-27T06:36:14.718Z,101822.16
2023-01-27T06:38:43.143Z,101822.53
2023-01-27T06:41:10.766Z,101818.03
2023-01-27T06:43:38.770Z,101819.13
2023-01-27T06:46:08.091Z,101830.69
2023-01-27T06:48:37.698Z,101821.81
2023-01-27T06:51:05.771Z,101827.75
2023-01-27T06:53:34.698Z,101824.22
2023-01-27T06:56:03.047Z,101829.72
2023-01-27T06:58:30.926Z,101842.50
2023-01-27T07:00:58.752Z,101844.44
2023-01-27T07:03:27.858Z,101851.38
2023-01-27T07:05:55.453Z,101847.50
2023-01-27T07:08:23.041Z,101854.56
2023-01-27T07:10:50.829Z,101856.25
2023-01-27T07:13:18.761Z,101853.97
2023-01-27T07:15:46.848Z,101867.34
2023-01-27T07:18:14.663Z,101868.19
2023-01-27T07:20:43.643Z,101868.44
2023-01-27T07:23:13.043Z,101868.94
2023-01-27T07:25:40.737Z,101873.44
2023-01-27T07:28:08.438Z,101886.09
2023-01-27T07:30:37.466Z,101883.28
2023-01-27T07:33:06.010Z,101883.91
2023-01-27T07:35:33.911Z,101886.59
2023-01-27T07:38:02.913Z,101888.28
2023-01-27T07:40:30.499Z,101899.00
2023-01-27T07:43:00.231Z,101893.88
2023-01-27T07:45:28.890Z,101898.38
2023-01-27T07:48:01.157Z,101898.38
2023-01-27T07:50:28.926Z,101905.81
2023-01-27T07:52:59.924Z,101908.63
2023-01-27T07:55:28.949Z,101907.88
2023-01-27T07:57:56.687Z,101913.22
2023-01-27T08:00:25.005Z,101910.31
2023-01-27T08:02:52.776Z,101909.34
2023-01-27T08:05:21.215Z,101917.63
2023-01-27T08:07:49.071Z,101921.25
2023-01-27T08:10:18.692Z,101926.25
2023-01-27T08:12:47.988Z,101928.81
2023-01-27T08:15:19.307Z,101927.00
2023-01-27T08:17:54.464Z,101928.09
2023-01-27T08:20:22.423Z,101928.31
2023-01-27T08:22:50.029Z,101936.84
2023-01-27T08:25:17.893Z,101941.72
2023-01-27T08:27:50.466Z,101935.50
2023-01-27T08:30:19.037Z,101946.34
2023-01-27T08:32:46.891Z,101936.84
2023-01-27T08:35:14.542Z,101945.63
2023-01-27T08:37:42.143Z,101946.00
2023-01-27T08:40:11.666Z,101955.25
2023-01-27T08:42:39.480Z,101956.09
2023-01-27T08:45:09.676Z,101954.38
2023-01-27T08:47:37.424Z,101959.59
2023-01-27T08:50:05.419Z,101963.38
2023-01-27T08:52:33.057Z,101972.63
2023-01-27T08:55:00.684Z,101974.94
2023-01-27T08:57:28.271Z,101965.44
2023-01-27T08:59:55.819Z,101969.84
2023-01-27T09:02:25.170Z,101973.84
2023-01-27T09:04:52.859Z,101972.28
2023-01-27T09:07:20.580Z,101975.09
2023-01-27T09:09:48.662Z,101974.97
2023-01-27T09:12:17.081Z,101980.66
2023-01-27T09:14:44.811Z,101982.25
2023-01-27T09:17:12.403Z,101983.34
2023-01-27T09:19:41.381Z,101993.34
2023-01-27T09:22:09.046Z,101997.38
2023-01-27T09:24:36.706Z,101991.16
2023-01-27T09:27:04.333Z,101988.09
2023-01-27T09:29:31.951Z,101991.88
2023-01-27T09:31:59.537Z,101995.91
2023-01-27T09:34:27.318Z,101999.69
2023-01-27T09:37:02.961Z,101996.03
2023-01-27T09:39:32.333Z,101996.75
2023-01-27T09:42:16.637Z,102002.47
2023-01-27T09:45:03.224Z,101997.72
2023-01-27T09:47:47.594Z,101999.56
2023-01-27T09:50:29.768Z,102001.03
2023-01-27T09:53:25.007Z,101994.19
2023-01-27T09:55:59.039Z,101996.78
2023-01-27T09:58:41.378Z,101999.06
2023-01-27T10:01:18.644Z,101995.56
2023-01-27T10:04:10.885Z,102004.31
2023-01-27T10:07:05.251Z,101995.03
2023-01-27T10:10:15.789Z,102001.38
2023-01-27T10:12:58.466Z,101996.28
2023-01-27T10:15:39.654Z,101997.38
2023-01-27T10:18:18.553Z,102006.00
2023-01-27T10:20:52.236Z,101991.28
2023-01-27T10:23:30.759Z,101994.69
2023-01-27T10:26:12.320Z,101994.81
2023-01-27T10:28:48.619Z,101991.63
2023-01-27T10:31:21.708Z,101986.28
2023-01-27T10:33:53.178Z,101991.41
2023-01-27T10:36:27.874Z,101987.75
2023-01-27T10:39:07.432Z,101999.91
2023-01-27T10:41:47.008Z,101998.22
2023-01-27T10:44:31.084Z,102001.88
2023-01-27T10:47:06.574Z,102011.38
2023-01-27T10:49:40.628Z,102012.59
2023-01-27T10:52:12.490Z,102014.03
2023-01-27T10:54:45.516Z,102004.81
2023-01-27T10:57:18.787Z,102001.13
2023-01-27T11:00:13.990Z,102016.63
2023-01-27T11:02:45.763Z,102009.78
2023-01-27T11:05:20.641Z,102014.41
2023-01-27T11:07:53.122Z,102023.28
2023-01-27T11:10:23.153Z,102016.13
2023-01-27T11:12:57.660Z,102009.69
2023-01-27T11:15:28.774Z,102012.00
2023-01-27T11:18:02.342Z,102007.22
2023-01-27T11:20:34.666Z,102015.38
2023-01-27T11:23:06.982Z,102013.78
2023-01-27T11:25:47.706Z,102011.34
2023-01-27T11:28:26.781Z,102010.25
2023-01-27T11:31:02.586Z,102004.91
2023-01-27T11:33:44.245Z,102012.44
2023-01-27T11:36:12.137Z,102017.81
2023-01-27T11:38:39.733Z,102017.69
2023-01-27T11:41:07.460Z,102016.13
2023-01-27T11:43:38.127Z,102014.66
2023-01-27T11:46:12.876Z,102012.09
2023-01-27T11:48:44.495Z,102010.03
2023-01-27T11:51:18.187Z,102008.69
2023-01-27T11:53:47.602Z,102006.50
2023-01-27T11:56:19.456Z,102003.59
2023-01-27T11:58:55.372Z,102008.34
2023-01-27T12:01:29.482Z,102000.56
2023-01-27T12:04:02.197Z,102001.13
2023-01-27T12:06:36.358Z,101997.97
2023-01-27T12:09:04.522Z,101995.66
2023-01-27T12:11:33.370Z,101990.03
2023-01-27T12:14:04.449Z,101993.72
2023-01-27T12:16:44.440Z,101993.38
2023-01-27T12:19:25.070Z,101998.09
2023-01-27T12:21:56.978Z,101983.84
2023-01-27T12:24:29.340Z,101990.66
2023-01-27T12:26:58.877Z,101986.16
2023-01-27T12:29:34.021Z,101988.00
2023-01-27T12:32:01.875Z,101981.53
2023-01-27T12:34:34.412Z,101983.59
2023-01-27T12:37:04.486Z,101978.03
2023-01-27T12:39:46.411Z,101982.38
2023-01-27T12:42:40.932Z,101973.88
2023-01-27T12:45:29.410Z,101984.31
2023-01-27T12:47:59.922Z,101979.69
2023-01-27T12:50:29.242Z,101979.34
2023-01-27T12:53:10.639Z,101973.59
2023-01-27T12:55:42.241Z,101977.88
2023-01-27T12:58:30.126Z,101973.59
2023-01-27T13:01:00.570Z,101973.38
2023-01-27T13:03:29.561Z,101975.81
2023-01-27T13:06:00.121Z,101968.50
2023-01-27T13:08:33.163Z,101974.09
2023-01-27T13:11:03.855Z,101979.09
2023-01-27T13:13:32.265Z,101982.38
2023-01-27T13:16:06.950Z,101980.94
2023-01-27T13:18:38.351Z,101988.72
2023-01-27T13:21:13.973Z,101988.25
2023-01-27T13:23:42.255Z,101986.03
2023-01-27T13:26:19.414Z,101989.69
2023-01-27T13:28:53.629Z,101987.16
2023-01-27T13:31:34.176Z,101987.03
2023-01-27T13:34:06.374Z,101987.00
2023-01-27T13:36:40.045Z,101983.50
2023-01-27T13:39:17.004Z,101997.00
2023-01-27T13:41:52.447Z,101988.09
2023-01-27T13:44:27.808Z,101996.50
2023-01-27T13:47:01.925Z,101991.50
2023-01-27T13:49:37.531Z,101992.84
2023-01-27T13:52:07.072Z,101995.44
2023-01-27T13:54:34.874Z,101999.44
2023-01-27T13:57:29.113Z,101999.81
2023-01-27T14:00:08.726Z,101997.00
2023-01-27T14:03:16.098Z,101995.66
2023-01-27T14:06:04.177Z,102005.28
2023-01-27T14:08:54.455Z,102007.84
2023-01-27T14:11:30.503Z,102003.31
2023-01-27T14:14:15.982Z,102010.50
2023-01-27T14:16:56.124Z,102017.19
2023-01-27T14:19:37.646Z,102010.38
2023-01-27T14:22:14.688Z,102019.03
2023-01-27T14:24:49.327Z,102015.84
2023-01-27T14:27:24.125Z,102014.50
2023-01-27T14:30:01.709Z,102023.28
2023-01-27T14:32:35.705Z,102021.47
2023-01-27T14:35:22.314Z,102020.84
2023-01-27T14:37:57.106Z,102015.72
2023-01-27T14:40:30.244Z,102020.97
2023-01-27T14:43:21.814Z,102027.56
2023-01-27T14:45:54.723Z,102027.06
2023-01-27T14:48:39.546Z,102036.53
2023-01-27T14:51:19.120Z,102041.16
2023-01-27T14:53:56.128Z,102044.44
2023-01-27T14:56:37.403Z,102036.81
2023-01-27T14:59:13.283Z,102040.09
2023-01-27T15:01:48.153Z,102044.47
2023-01-27T15:04:33.343Z,102045.56
2023-01-27T15:07:10.407Z,102038.66
2023-01-27T15:10:05.353Z,102044.38
2023-01-27T15:13:05.181Z,102047.44
2023-01-27T15:15:55.198Z,102045.97
2023-01-27T15:18:43.384Z,102044.50
2023-01-27T15:21:29.540Z,102041.81
2023-01-27T15:24:20.940Z,102044.50
2023-01-27T15:26:51.686Z,102046.69
2023-01-27T15:29:26.175Z,102053.50
2023-01-27T15:32:22.901Z,102065.56
2023-01-27T15:34:53.614Z,102068.94
2023-01-27T15:37:23.980Z,102072.97
2023-01-27T15:40:11.586Z,102061.13
2023-01-27T15:42:53.271Z,102070.25
2023-01-27T15:45:29.940Z,102065.97
2023-01-27T15:48:03.456Z,102081.72
2023-01-27T15:50:33.975Z,102076.22
2023-01-27T15:53:04.962Z,102079.25
2023-01-27T15:55:37.373Z,102078.66
2023-01-27T15:58:18.264Z,102080.94
2023-01-27T16:00:52.387Z,102082.88
2023-01-27T16:03:26.434Z,102089.50
2023-01-27T16:05:57.192Z,102089.09
2023-01-27T16:08:33.389Z,102106.97
2023-01-27T16:11:26.319Z,102108.41
2023-01-27T16:14:37.876Z,102105.16
2023-01-27T16:17:26.598Z,102103.22
2023-01-27T16:20:00.582Z,102108.81
2023-01-27T16:22:32.430Z,102111.38
2023-01-27T16:25:18.367Z,102107.72
2023-01-27T16:27:52.654Z,102106.41
2023-01-27T16:30:27.155Z,102108.63
2023-01-27T16:33:06.749Z,102113.38
2023-01-27T16:35:43.940Z,102112.75
2023-01-27T16:38:23.576Z,102117.16
2023-01-27T16:40:56.118Z,102113.19
2023-01-27T16:43:31.418Z,102116.63
2023-01-27T16:46:02.427Z,102125.25
2023-01-27T16:48:35.290Z,102126.25
2023-01-27T16:51:15.147Z,102122.59
2023-01-27T16:53:46.602Z,102137.56
2023-01-27T16:56:21.448Z,102134.41
2023-01-27T16:58:51.097Z,102132.50
2023-01-27T17:01:26.846Z,102132.84
2023-01-27T17:04:04.871Z,102140.19
2023-01-27T17:06:39.014Z,102142.72
2023-01-27T17:09:21.123Z,102143.91
2023-01-27T17:11:49.039Z,102144.69
2023-01-27T17:14:29.856Z,102147.03
2023-01-27T17:17:01.936Z,102154.63
2023-01-27T17:19:32.491Z,102151.81
2023-01-27T17:22:01.697Z,102148.06
2023-01-27T17:24:31.933Z,102149.13
2023-01-27T17:27:03.992Z,102157.16
2023-01-27T17:29:35.496Z,102150.16
2023-01-27T17:32:15.101Z,102160.13
2023-01-27T17:34:42.763Z,102160.34
2023-01-27T17:37:17.747Z,102164.53
2023-01-27T17:39:46.519Z,102168.88
2023-01-27T17:42:15.568Z,102169.25
2023-01-27T17:44:43.349Z,102168.38
2023-01-27T17:47:16.164Z,102170.59
2023-01-27T17:49:45.122Z,102169.53
2023-01-27T17:52:19.009Z,102169.53
2023-01-27T17:54:47.351Z,102173.16
2023-01-27T17:57:19.645Z,102177.56
2023-01-27T17:59:56.076Z,102175.09
2023-01-27T18:02:29.304Z,102182.38
2023-01-27T18:05:00.424Z,102178.97
2023-01-27T18:07:28.505Z,102187.31
2023-01-27T18:09:57.810Z,102188.28
2023-01-27T18:12:32.861Z,102195.03
2023-01-27T18:15:21.156Z,102196.41
2023-01-27T18:18:00.390Z,102194.38
2023-01-27T18:20:29.953Z,102198.31
2023-01-27T18:22:58.262Z,102198.78
2023-01-27T18:25:26.054Z,102204.88
2023-01-27T18:27:56.032Z,102205.75
2023-01-27T18:30:25.894Z,102198.56
2023-01-27T18:33:03.839Z,102205.09
2023-01-27T18:35:34.231Z,102199.09
2023-01-27T18:38:03.508Z,102199.34
2023-01-27T18:40:33.673Z,102207.25
2023-01-27T18:43:03.320Z,102204.81
2023-01-27T18:45:31.805Z,102208.31
2023-01-27T18:47:59.870Z,102201.78
2023-01-27T18:50:29.238Z,102210.34
2023-01-27T18:52:57.036Z,102200.38
2023-01-27T18:55:26.325Z,102213.25
2023-01-27T18:57:58.196Z,102210.78
2023-01-27T19:00:28.040Z,102212.50
2023-01-27T19:02:59.093Z,102210.34
2023-01-27T19:05:30.114Z,102210.44
2023-01-27T19:07:58.359Z,102213.25
2023-01-27T19:10:28.463Z,102212.25
2023-01-27T19:12:58.504Z,102214.31
2023-01-27T19:15:30.877Z,102206.06
2023-01-27T19:18:01.045Z,102210.84
2023-01-27T19:20:31.773Z,102212.09
2023-01-27T19:22:59.740Z,102205.47
2023-01-27T19:25:30.961Z,102207.78
2023-01-27T19:28:06.519Z,102201.59
2023-01-27T19:30:37.028Z,102198.16
2023-01-27T19:33:05.709Z,102204.41
2023-01-27T19:35:35.740Z,102198.13
2023-01-27T19:38:05.507Z,102206.81
2023-01-27T19:40:33.971Z,102210.25
2023-01-27T19:43:01.917Z,102205.34
2023-01-27T19:45:29.795Z,102210.97
2023-01-27T19:47:59.602Z,102213.41
2023-01-27T19:50:29.477Z,102209.78
2023-01-27T19:52:59.386Z,102217.06
2023-01-27T19:55:27.051Z,102219.53
2023-01-27T19:57:54.681Z,102211.50
2023-01-27T20:00:26.438Z,102216.94
2023-01-27T20:02:54.164Z,102228.00
2023-01-27T20:05:22.907Z,102235.25
2023-01-27T20:07:50.566Z,102224.56
2023-01-27T20:10:22.001Z,102218.78
2023-01-27T20:12:57.471Z,102229.03
2023-01-27T20:15:26.230Z,102231.84
2023-01-27T20:17:54.457Z,102231.44
2023-01-27T20:20:23.246Z,102226.81
2023-01-27T20:22:51.432Z,102224.66
2023-01-27T20:25:22.432Z,102219.81
2023-01-27T20:27:51.657Z,102224.72
2023-01-27T20:30:20.463Z,102231.47
2023-01-27T20:32:48.470Z,102225.41
2023-01-27T20:35:17.742Z,102235.47
2023-01-27T20:37:47.909Z,102235.25
2023-01-27T20:40:17.570Z,102241.22
2023-01-27T20:42:47.031Z,102240.34
2023-01-27T20:45:15.649Z,102232.91
2023-01-27T20:47:44.019Z,102231.31
2023-01-27T20:50:13.632Z,102234.81
2023-01-27T20:52:41.525Z,102238.25
2023-01-27T20:55:12.262Z,102236.31
2023-01-27T20:57:40.213Z,102237.22
2023-01-27T21:00:16.259Z,102235.72
2023-01-27T21:02:44.338Z,102238.59
2023-01-27T21:05:13.268Z,102244.28
2023-01-27T21:07:43.731Z,102246.97
2023-01-27T21:10:13.179Z,102246.84
2023-01-27T21:12:41.077Z,102249.66
2023-01-27T21:15:12.254Z,102243.41
2023-01-27T21:17:40.395Z,102234.69
2023-01-27T21:20:10.007Z,102235.56
2023-01-27T21:22:40.710Z,102229.22
2023-01-27T21:25:09.254Z,102238.53
2023-01-27T21:27:37.793Z,102248.78
2023-01-27T21:30:07.575Z,102247.28
2023-01-27T21:32:36.741Z,102245.06
2023-01-27T21:35:05.304Z,102249.25
2023-01-27T21:37:33.512Z,102241.44
2023-01-27T21:40:03.799Z,102233.50
2023-01-27T21:42:49.264Z,102229.69
2023-01-27T21:45:17.509Z,102224.41
2023-01-27T21:47:46.959Z,102223.13
2023-01-27T21:50:17.892Z,102228.25
2023-01-27T21:52:47.195Z,102228.78
2023-01-27T21:55:17.626Z,102229.31
2023-01-27T21:57:48.249Z,102240.41
2023-01-27T22:00:20.031Z,102233.16
2023-01-27T22:02:54.861Z,102227.81
2023-01-27T22:05:23.505Z,102224.38
2023-01-27T22:07:53.609Z,102225.44
2023-01-27T22:10:23.386Z,102224.81
2023-01-27T22:12:52.142Z,102222.47
2023-01-27T22:15:20.904Z,102217.66
2023-01-27T22:17:48.688Z,102210.88
2023-01-27T22:20:18.725Z,102207.03
2023-01-27T22:22:48.840Z,102209.56
2023-01-27T22:25:17.578Z,102208.09
2023-01-27T22:27:48.552Z,102201.47
2023-01-27T22:30:19.357Z,102192.00
2023-01-27T22:32:48.453Z,102196.41
2023-01-27T22:35:21.127Z,102195.44
2023-01-27T22:37:49.587Z,102193.50
2023-01-27T22:40:17.722Z,102186.88
2023-01-27T22:42:45.519Z,102186.09
2023-01-27T22:45:13.719Z,102188.13
2023-01-27T22:47:42.414Z,102184.38
2023-01-27T22:50:11.784Z,102180.25
2023-01-27T22:52:41.102Z,102178.97
2023-01-27T22:55:12.345Z,102183.75
2023-01-27T22:57:40.233Z,102187.13
2023-01-27T23:00:09.789Z,102184.63
2023-01-27T23:02:37.659Z,102178.47
2023-01-27T23:05:05.985Z,102176.22
2023-01-27T23:07:33.846Z,102182.25
2023-01-27T23:10:06.072Z,102197.31
2023-01-27T23:12:34.002Z,102196.44
2023-01-27T23:15:03.289Z,102190.00
2023-01-27T23:17:32.324Z,102191.50
2023-01-27T23:20:00.351Z,102188.66
2023-01-27T23:22:29.191Z,102189.47
2023-01-27T23:24:56.963Z,102192.44
2023-01-27T23:27:29.835Z,102196.41
2023-01-27T23:29:57.508Z,102192.13
2023-01-27T23:32:25.332Z,102197.19
2023-01-27T23:34:53.024Z,102204.03
2023-01-27T23:37:20.955Z,102201.66
2023-01-27T23:39:49.748Z,102216.44
2023-01-27T23:42:17.988Z,102218.66
2023-01-27T23:44:47.622Z,102205.28
2023-01-27T23:47:16.559Z,102210.97
2023-01-27T23:49:44.245Z,102209.56
2023-01-27T23:52:13.363Z,102211.00
2023-01-27T23:54:43.308Z,102206.13
2023-01-27T23:57:10.948Z,102205.00
2023-01-27T23:59:38.955Z,102209.94
